createdAt,value
2018-05-10T00:02:06.799Z,32.10
2018-05-10T00:04:34.371Z,34.37
2018-05-10T00:07:01.969Z,32.00
2018-05-10T00:09:29.588Z,26.23
2018-05-10T00:11:57.148Z,29.80
2018-05-10T00:14:24.724Z,29.50
2018-05-10T00:16:52.275Z,27.47
2018-05-10T00:19:19.861Z,27.77
2018-05-10T00:21:48.212Z,29.20
2018-05-10T00:24:15.852Z,28.47
2018-05-10T00:26:43.426Z,34.23
2018-05-10T00:29:11.384Z,28.17
2018-05-10T00:34:06.096Z,28.47
2018-05-10T00:36:33.706Z,34.33
2018-05-10T00:39:02.050Z,29.93
2018-05-10T00:41:29.637Z,35.67
2018-05-10T00:43:57.196Z,45.20
2018-05-10T00:46:25.596Z,31.60
2018-05-10T00:48:53.172Z,30.80
2018-05-10T00:51:20.763Z,34.93
2018-05-10T00:56:16.199Z,30.70
2018-05-10T00:58:43.769Z,33.30
2018-05-10T01:01:11.336Z,31.67
2018-05-10T01:03:38.930Z,31.93
2018-05-10T01:06:07.263Z,31.23
2018-05-10T01:08:34.849Z,39.10
2018-05-10T01:11:03.171Z,55.33
2018-05-10T01:13:30.768Z,49.60
2018-05-10T01:15:58.370Z,59.33
2018-05-10T01:18:26.012Z,74.83
2018-05-10T01:20:53.592Z,74.27
2018-05-10T01:23:21.175Z,67.47
2018-05-10T01:25:48.801Z,77.60
2018-05-10T01:28:17.135Z,80.93
2018-05-10T01:30:44.700Z,82.10
2018-05-10T01:33:12.292Z,80.80
2018-05-10T01:35:51.591Z,88.13
2018-05-10T01:38:19.212Z,135.23
2018-05-10T01:40:47.543Z,90.57
2018-05-10T01:43:15.124Z,89.10
2018-05-10T01:45:42.756Z,98.33
2018-05-10T01:48:11.073Z,109.00
2018-05-10T01:50:39.408Z,94.90
2018-05-10T01:53:07.004Z,101.33
2018-05-10T01:55:34.568Z,113.20
2018-05-10T01:58:02.166Z,96.37
2018-05-10T02:00:29.756Z,105.00
2018-05-10T02:02:57.380Z,103.40
2018-05-10T02:05:24.972Z,130.27
2018-05-10T02:07:52.540Z,106.23
2018-05-10T02:10:20.132Z,101.30
2018-05-10T02:12:47.703Z,108.80
2018-05-10T02:15:16.070Z,107.03
2018-05-10T02:17:43.627Z,115.17
2018-05-10T02:20:11.229Z,112.00
2018-05-10T02:22:38.790Z,106.53
2018-05-10T02:25:06.377Z,114.07
2018-05-10T02:27:33.980Z,107.47
2018-05-10T02:30:01.695Z,110.53
2018-05-10T02:32:29.261Z,111.03
2018-05-10T02:34:56.839Z,119.90
2018-05-10T02:37:24.417Z,122.73
2018-05-10T02:39:51.993Z,129.93
2018-05-10T02:42:19.580Z,137.20
2018-05-10T02:44:47.300Z,135.47
2018-05-10T02:47:14.871Z,142.07
2018-05-10T02:49:42.422Z,143.00
2018-05-10T02:52:10.026Z,133.47
2018-05-10T02:54:37.607Z,137.43
2018-05-10T02:57:05.193Z,136.07
2018-05-10T02:59:32.751Z,131.43
2018-05-10T03:02:00.340Z,122.30
2018-05-10T03:04:27.920Z,134.90
2018-05-10T03:06:56.272Z,152.20
2018-05-10T03:09:23.853Z,146.17
2018-05-10T03:11:52.221Z,148.53
2018-05-10T03:14:19.777Z,141.63
2018-05-10T03:16:47.527Z,126.37
2018-05-10T03:19:15.135Z,141.17
2018-05-10T03:21:43.501Z,146.30
2018-05-10T03:24:11.945Z,144.27
2018-05-10T03:26:39.548Z,145.17
2018-05-10T03:29:07.898Z,129.73
2018-05-10T03:31:35.476Z,135.03
2018-05-10T03:34:03.068Z,126.97
2018-05-10T03:36:30.648Z,131.43
2018-05-10T03:38:58.234Z,119.93
2018-05-10T03:41:25.837Z,118.87
2018-05-10T03:43:54.242Z,116.23
2018-05-10T03:46:21.823Z,103.40
2018-05-10T03:48:49.415Z,108.00
2018-05-10T03:51:17.047Z,124.50
2018-05-10T03:53:44.636Z,108.30
2018-05-10T03:56:12.212Z,106.23
2018-05-10T03:58:40.550Z,97.97
2018-05-10T04:01:08.221Z,101.43
2018-05-10T04:03:57.203Z,101.33
2018-05-10T04:06:36.578Z,93.67
2018-05-10T04:09:16.739Z,95.10
2018-05-10T04:11:44.931Z,97.60
2018-05-10T04:14:12.488Z,98.30
2018-05-10T04:16:41.115Z,94.73
2018-05-10T04:19:11.529Z,126.80
2018-05-10T04:21:39.147Z,89.60
2018-05-10T04:24:06.696Z,101.70
2018-05-10T04:26:35.049Z,97.13
2018-05-10T04:29:02.617Z,94.60
2018-05-10T04:31:30.207Z,85.43
2018-05-10T04:33:58.532Z,92.43
2018-05-10T04:36:26.135Z,81.33
2018-05-10T04:38:54.587Z,75.83
2018-05-10T04:41:22.137Z,84.03
2018-05-10T04:43:49.715Z,77.53
2018-05-10T04:46:17.308Z,75.73
2018-05-10T04:48:45.672Z,95.83
2018-05-10T04:51:14.037Z,66.43
2018-05-10T04:53:42.395Z,70.70
2018-05-10T04:56:09.940Z,71.50
2018-05-10T04:58:37.566Z,67.33
2018-05-10T05:01:05.921Z,65.77
2018-05-10T05:03:33.539Z,65.07
2018-05-10T05:06:01.141Z,70.43
2018-05-10T05:08:28.740Z,63.47
2018-05-10T05:10:56.319Z,82.23
2018-05-10T05:13:23.912Z,69.13
2018-05-10T05:15:51.516Z,62.90
2018-05-10T05:18:19.113Z,81.00
2018-05-10T05:20:46.767Z,72.27
2018-05-10T05:23:14.360Z,75.50
2018-05-10T05:25:41.927Z,66.90
2018-05-10T05:28:09.483Z,89.70
2018-05-10T05:30:37.090Z,72.20
2018-05-10T05:33:04.687Z,73.77
2018-05-10T05:35:32.296Z,72.30
2018-05-10T05:37:59.848Z,64.70
2018-05-10T05:40:27.420Z,58.83
2018-05-10T05:42:55.757Z,62.17
2018-05-10T05:45:23.399Z,55.00
2018-05-10T05:47:50.964Z,55.10
2018-05-10T05:50:18.555Z,54.90
2018-05-10T05:52:46.127Z,50.37
2018-05-10T05:55:13.744Z,48.00
2018-05-10T05:57:41.365Z,52.10
2018-05-10T06:00:08.983Z,45.43
2018-05-10T06:02:36.580Z,43.40
2018-05-10T06:05:04.192Z,42.23
2018-05-10T06:07:31.772Z,47.10
2018-05-10T06:09:59.351Z,41.03
2018-05-10T06:12:27.119Z,43.50
2018-05-10T06:14:54.687Z,41.07
2018-05-10T06:17:22.269Z,39.87
2018-05-10T06:19:50.596Z,47.23
2018-05-10T06:22:18.180Z,38.60
2018-05-10T06:24:45.788Z,43.33
2018-05-10T06:27:13.342Z,42.03
2018-05-10T06:29:40.920Z,52.93
2018-05-10T06:32:08.527Z,44.47
2018-05-10T06:34:36.128Z,39.87
2018-05-10T06:37:03.740Z,47.80
2018-05-10T06:39:31.381Z,58.93
2018-05-10T06:41:58.965Z,39.87
2018-05-10T06:44:26.550Z,40.30
2018-05-10T06:46:54.160Z,40.53
2018-05-10T06:49:22.472Z,40.10
2018-05-10T06:51:50.041Z,35.77
2018-05-10T06:54:17.612Z,38.20
2018-05-10T06:56:45.952Z,36.80
2018-05-10T06:59:13.551Z,47.50
2018-05-10T07:01:41.118Z,40.53
2018-05-10T07:04:09.473Z,36.97
2018-05-10T07:06:37.063Z,41.30
2018-05-10T07:09:05.476Z,40.13
2018-05-10T07:11:33.052Z,44.67
2018-05-10T07:14:00.743Z,37.50
2018-05-10T07:16:28.364Z,38.60
2018-05-10T07:18:56.032Z,31.73
2018-05-10T07:21:23.646Z,32.37
2018-05-10T07:23:51.983Z,32.87
2018-05-10T07:26:19.580Z,33.30
2018-05-10T07:28:47.946Z,34.23
2018-05-10T07:31:15.567Z,37.20
2018-05-10T07:33:43.155Z,32.40
2018-05-10T07:36:10.761Z,48.23
2018-05-10T07:38:39.119Z,35.80
2018-05-10T07:41:06.692Z,44.63
2018-05-10T07:43:35.039Z,45.17
2018-05-10T07:46:02.624Z,44.57
2018-05-10T07:48:30.189Z,45.03
2018-05-10T07:50:58.553Z,69.57
2018-05-10T07:53:26.370Z,43.53
2018-05-10T07:55:53.992Z,45.90
2018-05-10T07:58:21.571Z,47.13
2018-05-10T08:00:49.880Z,46.73
2018-05-10T08:03:17.464Z,61.90
2018-05-10T08:05:45.104Z,49.13
2018-05-10T08:08:12.703Z,58.00
2018-05-10T08:10:40.306Z,42.30
2018-05-10T08:13:08.624Z,43.87
2018-05-10T08:15:43.885Z,46.40
2018-05-10T08:18:11.465Z,54.53
2018-05-10T08:20:39.039Z,41.97
2018-05-10T08:23:07.383Z,38.50
2018-05-10T08:25:34.997Z,46.80
2018-05-10T08:28:02.594Z,38.90
2018-05-10T08:30:30.167Z,37.67
2018-05-10T08:32:57.781Z,49.97
2018-05-10T08:35:25.372Z,40.60
2018-05-10T08:37:52.954Z,35.73
2018-05-10T08:40:20.536Z,34.17
2018-05-10T08:42:48.894Z,29.57
2018-05-10T08:45:16.462Z,30.57
2018-05-10T08:47:44.043Z,32.30
2018-05-10T08:50:12.400Z,33.20
2018-05-10T08:52:40.016Z,38.70
2018-05-10T08:55:07.585Z,44.50
2018-05-10T08:57:35.187Z,38.63
2018-05-10T09:00:02.840Z,37.60
2018-05-10T09:02:31.133Z,36.80
2018-05-10T09:04:58.744Z,33.43
2018-05-10T09:07:26.408Z,41.60
2018-05-10T09:09:53.915Z,37.33
2018-05-10T09:12:21.484Z,37.70
2018-05-10T09:14:49.920Z,41.00
2018-05-10T09:17:17.511Z,43.07
2018-05-10T09:19:45.147Z,55.23
2018-05-10T09:22:12.727Z,39.73
2018-05-10T09:24:40.303Z,44.00
2018-05-10T09:27:07.873Z,47.40
2018-05-10T09:29:36.231Z,43.27
2018-05-10T09:32:03.828Z,47.50
2018-05-10T09:34:31.433Z,49.87
2018-05-10T09:36:59.020Z,51.90
2018-05-10T09:39:26.636Z,50.67
2018-05-10T09:41:54.248Z,45.30
2018-05-10T09:44:21.752Z,47.77
2018-05-10T09:46:49.366Z,48.33
2018-05-10T09:49:16.977Z,45.07
2018-05-10T09:51:44.611Z,42.20
2018-05-10T09:54:13.033Z,49.03
2018-05-10T09:56:40.640Z,47.37
2018-05-10T09:59:08.219Z,53.53
2018-05-10T10:01:36.599Z,85.23
2018-05-10T10:04:04.948Z,40.47
2018-05-10T10:06:34.227Z,46.47
2018-05-10T10:09:01.812Z,45.70
2018-05-10T10:11:29.405Z,48.80
2018-05-10T10:13:57.789Z,41.30
2018-05-10T10:16:34.558Z,64.27
2018-05-10T10:19:02.933Z,39.20
2018-05-10T10:21:31.300Z,58.53
2018-05-10T10:23:58.951Z,45.50
2018-05-10T10:26:26.509Z,51.80
2018-05-10T10:28:54.112Z,58.87
2018-05-10T10:31:22.472Z,56.63
2018-05-10T10:33:50.176Z,46.30
2018-05-10T10:36:17.743Z,44.57
2018-05-10T10:38:46.165Z,53.73
2018-05-10T10:41:13.811Z,46.10
2018-05-10T10:43:41.440Z,48.07
2018-05-10T10:46:09.024Z,58.33
2018-05-10T10:48:36.648Z,46.33
2018-05-10T10:51:04.680Z,65.63
2018-05-10T10:53:32.380Z,60.70
2018-05-10T10:56:00.785Z,55.80
2018-05-10T10:58:29.980Z,55.60
2018-05-10T11:00:57.579Z,62.37
2018-05-10T11:03:25.175Z,59.83
2018-05-10T11:05:53.561Z,51.23
2018-05-10T11:08:21.123Z,44.60
2018-05-10T11:10:48.741Z,54.03
2018-05-10T11:13:16.349Z,54.60
2018-05-10T11:15:43.955Z,44.37
2018-05-10T11:18:11.521Z,60.70
2018-05-10T11:20:39.101Z,45.33
2018-05-10T11:23:06.689Z,47.30
2018-05-10T11:25:35.079Z,49.10
2018-05-10T11:28:02.684Z,54.33
2018-05-10T11:30:30.299Z,48.23
2018-05-10T11:32:58.708Z,48.23
2018-05-10T11:35:26.239Z,56.73
2018-05-10T11:37:53.841Z,54.37
2018-05-10T11:40:21.493Z,48.30
2018-05-10T11:42:49.081Z,56.00
2018-05-10T11:45:16.669Z,56.27
2018-05-10T11:47:45.034Z,48.70
2018-05-10T11:50:12.660Z,48.53
2018-05-10T11:52:40.331Z,49.27
2018-05-10T11:55:07.924Z,41.70
2018-05-10T11:57:35.504Z,40.50
2018-05-10T12:00:03.864Z,35.40
2018-05-10T12:02:31.474Z,38.23
2018-05-10T12:04:59.084Z,27.70
2018-05-10T12:07:26.675Z,47.80
2018-05-10T12:09:55.044Z,34.30
2018-05-10T12:12:23.416Z,27.80
2018-05-10T12:14:51.780Z,32.50
2018-05-10T12:17:19.376Z,26.33
2018-05-10T12:19:46.949Z,35.63
2018-05-10T12:22:14.508Z,24.33
2018-05-10T12:24:42.126Z,27.47
2018-05-10T12:27:09.705Z,27.80
2018-05-10T12:29:37.366Z,53.70
2018-05-10T12:32:05.743Z,31.80
2018-05-10T12:34:34.105Z,25.60
2018-05-10T12:37:01.669Z,23.37
2018-05-10T12:39:29.244Z,25.43
2018-05-10T12:41:57.589Z,23.50
2018-05-10T12:44:25.186Z,30.50
2018-05-10T12:46:53.558Z,39.67
2018-05-10T12:49:21.167Z,37.03
2018-05-10T12:51:48.772Z,38.83
2018-05-10T12:54:16.376Z,45.47
2018-05-10T12:56:43.997Z,55.70
2018-05-10T12:59:11.611Z,39.10
2018-05-10T13:01:39.216Z,58.80
2018-05-10T13:04:06.825Z,69.50
2018-05-10T13:06:34.406Z,59.00
2018-05-10T13:09:01.989Z,75.43
2018-05-10T13:11:29.663Z,61.33
2018-05-10T13:13:57.281Z,94.50
2018-05-10T13:16:24.896Z,63.83
2018-05-10T13:18:52.474Z,65.77
2018-05-10T13:21:20.821Z,82.70
2018-05-10T13:23:48.398Z,78.20
2018-05-10T13:26:16.109Z,62.17
2018-05-10T13:28:49.995Z,95.77
2018-05-10T13:31:17.683Z,72.47
2018-05-10T13:33:45.310Z,89.07
2018-05-10T13:36:13.674Z,86.83
2018-05-10T13:38:41.237Z,79.03
2018-05-10T13:41:08.864Z,93.00
2018-05-10T13:43:36.452Z,84.23
2018-05-10T13:46:04.047Z,81.03
2018-05-10T13:48:32.403Z,155.10
2018-05-10T13:50:59.996Z,93.37
2018-05-10T13:53:27.670Z,103.20
2018-05-10T13:55:55.278Z,99.63
2018-05-10T13:58:22.876Z,91.97
2018-05-10T14:00:51.229Z,97.93
2018-05-10T14:03:18.808Z,116.13
2018-05-10T14:05:47.162Z,94.33
2018-05-10T14:08:14.760Z,127.83
2018-05-10T14:10:42.398Z,108.37
2018-05-10T14:13:09.981Z,103.53
2018-05-10T14:15:38.749Z,99.83
2018-05-10T14:18:06.339Z,137.03
2018-05-10T14:20:33.924Z,76.57
2018-05-10T14:23:01.524Z,75.53
2018-05-10T14:25:29.113Z,76.60
2018-05-10T14:27:56.674Z,79.57
2018-05-10T14:30:25.077Z,76.50
2018-05-10T14:32:52.659Z,78.77
2018-05-10T14:35:20.216Z,80.27
2018-05-10T14:37:47.821Z,88.80
2018-05-10T14:40:16.213Z,86.60
2018-05-10T14:42:44.613Z,88.53
2018-05-10T14:45:12.229Z,96.67
2018-05-10T14:47:39.814Z,89.87
2018-05-10T14:50:08.160Z,91.20
2018-05-10T14:52:35.817Z,83.37
2018-05-10T14:55:03.422Z,89.93
2018-05-10T14:57:31.800Z,93.33
2018-05-10T15:00:00.160Z,95.67
2018-05-10T15:02:28.527Z,92.03
2018-05-10T15:04:56.143Z,83.23
2018-05-10T15:07:23.730Z,90.43
2018-05-10T15:09:51.372Z,97.27
2018-05-10T15:12:18.969Z,95.90
2018-05-10T15:14:46.580Z,113.17
2018-05-10T15:17:14.178Z,104.23
2018-05-10T15:19:41.853Z,97.47
2018-05-10T15:22:09.463Z,95.37
2018-05-10T15:24:37.089Z,91.90
2018-05-10T15:27:04.676Z,114.13
2018-05-10T15:29:33.032Z,90.33
2018-05-10T15:32:00.636Z,89.03
2018-05-10T15:34:28.279Z,84.57
2018-05-10T15:36:56.636Z,82.93
2018-05-10T15:39:24.225Z,79.53
2018-05-10T15:41:52.590Z,89.63
2018-05-10T15:44:20.929Z,88.60
2018-05-10T15:46:48.580Z,87.13
2018-05-10T15:49:16.167Z,90.23
2018-05-10T15:51:43.793Z,83.87
2018-05-10T15:54:12.232Z,90.80
2018-05-10T15:56:39.848Z,85.93
2018-05-10T15:59:07.448Z,101.23
2018-05-10T16:01:35.089Z,92.27
2018-05-10T16:04:02.670Z,91.73
2018-05-10T16:06:30.285Z,92.70
2018-05-10T16:08:57.846Z,95.00
2018-05-10T16:11:25.476Z,92.03
2018-05-10T16:13:53.929Z,130.03
2018-05-10T16:16:22.229Z,83.43
2018-05-10T16:18:50.929Z,95.97
2018-05-10T16:21:19.297Z,123.20
2018-05-10T16:23:47.682Z,101.23
2018-05-10T16:26:16.014Z,81.27
2018-05-10T16:28:43.631Z,95.70
2018-05-10T16:31:11.970Z,73.80
2018-05-10T16:33:39.683Z,78.40
2018-05-10T16:36:07.203Z,90.60
2018-05-10T16:38:34.853Z,86.23
2018-05-10T16:41:02.518Z,90.87
2018-05-10T16:43:30.808Z,75.67
2018-05-10T16:45:58.446Z,67.87
2018-05-10T16:48:26.067Z,70.17
2018-05-10T16:50:53.664Z,68.00
2018-05-10T16:53:21.314Z,66.70
2018-05-10T16:55:48.865Z,73.07
2018-05-10T16:58:17.274Z,78.57
2018-05-10T17:00:44.894Z,61.70
2018-05-10T17:03:13.229Z,71.63
2018-05-10T17:05:40.849Z,56.30
2018-05-10T17:08:08.455Z,74.63
2018-05-10T17:10:36.158Z,56.70
2018-05-10T17:13:03.720Z,61.20
2018-05-10T17:15:31.309Z,66.23
2018-05-10T17:17:58.972Z,71.13
2018-05-10T17:20:26.588Z,58.80
2018-05-10T17:22:54.932Z,55.00
2018-05-10T17:25:22.589Z,44.30
2018-05-10T17:27:50.191Z,45.43
2018-05-10T17:30:18.522Z,44.70
2018-05-10T17:32:46.130Z,40.00
2018-05-10T17:35:14.649Z,39.07
2018-05-10T17:37:43.051Z,42.67
2018-05-10T17:40:10.637Z,46.37
2018-05-10T17:42:39.011Z,59.53
2018-05-10T17:45:06.720Z,41.97
2018-05-10T17:47:35.041Z,40.33
2018-05-10T17:50:03.458Z,45.80
2018-05-10T17:52:31.885Z,45.53
2018-05-10T17:54:59.484Z,46.27
2018-05-10T17:57:27.043Z,42.63
2018-05-10T17:59:54.682Z,46.23
2018-05-10T18:02:22.385Z,39.80
2018-05-10T18:04:49.983Z,54.70
2018-05-10T18:07:17.607Z,42.20
2018-05-10T18:09:45.324Z,52.13
2018-05-10T18:12:12.939Z,44.30
2018-05-10T18:14:41.277Z,42.97
2018-05-10T18:17:08.900Z,51.67
2018-05-10T18:19:36.496Z,45.27
2018-05-10T18:22:04.097Z,45.30
2018-05-10T18:24:32.462Z,59.50
2018-05-10T18:27:00.054Z,47.50
2018-05-10T18:29:28.432Z,65.33
2018-05-10T18:31:56.860Z,74.50
2018-05-10T18:34:24.538Z,60.00
2018-05-10T18:36:52.156Z,61.80
2018-05-10T18:39:19.735Z,61.23
2018-05-10T18:41:47.349Z,56.20
2018-05-10T18:44:15.752Z,54.70
2018-05-10T18:46:43.363Z,75.10
2018-05-10T18:49:10.997Z,62.17
2018-05-10T18:51:39.021Z,65.10
2018-05-10T18:54:07.373Z,60.27
2018-05-10T18:56:34.935Z,56.40
2018-05-10T18:59:02.546Z,55.60
2018-05-10T19:01:30.140Z,55.23
2018-05-10T19:03:57.757Z,54.57
2018-05-10T19:06:26.127Z,56.37
2018-05-10T19:08:53.732Z,56.77
2018-05-10T19:11:21.337Z,62.37
2018-05-10T19:13:48.969Z,59.03
2018-05-10T19:16:17.310Z,55.70
2018-05-10T19:18:44.900Z,48.67
2018-05-10T19:21:12.550Z,49.80
2018-05-10T19:23:40.177Z,50.00
2018-05-10T19:26:07.788Z,43.30
2018-05-10T19:28:36.212Z,29.40
2018-05-10T19:31:03.943Z,38.67
2018-05-10T19:33:31.578Z,33.63
2018-05-10T19:35:59.568Z,34.43
2018-05-10T19:38:27.164Z,38.90
2018-05-10T19:40:54.790Z,28.43
2018-05-10T19:43:22.350Z,28.70
2018-05-10T19:45:49.947Z,25.60
2018-05-10T19:48:17.548Z,42.63
2018-05-10T19:50:45.129Z,26.90
2018-05-10T19:53:13.020Z,28.47
2018-05-10T19:55:40.612Z,31.20
2018-05-10T19:58:08.242Z,35.10
2018-05-10T20:00:36.748Z,33.37
2018-05-10T20:03:04.332Z,23.97
2018-05-10T20:05:32.701Z,26.10
2018-05-10T20:08:00.503Z,24.27
2018-05-10T20:10:28.093Z,27.30
2018-05-10T20:12:55.680Z,40.33
2018-05-10T20:15:23.264Z,64.20
2018-05-10T20:17:51.654Z,37.67
2018-05-10T20:20:19.248Z,31.77
2018-05-10T20:22:46.893Z,34.73
2018-05-10T20:25:14.526Z,41.17
2018-05-10T20:27:42.541Z,40.57
2018-05-10T20:30:10.178Z,42.93
2018-05-10T20:32:37.780Z,34.30
2018-05-10T20:35:05.448Z,30.73
2018-05-10T20:37:33.072Z,30.30
2018-05-10T20:40:00.797Z,40.63
2018-05-10T20:42:28.356Z,28.53
2018-05-10T20:44:55.947Z,35.20
2018-05-10T20:47:23.573Z,35.97
2018-05-10T20:49:51.158Z,38.33
2018-05-10T20:52:19.512Z,38.97
2018-05-10T20:54:47.117Z,35.27
2018-05-10T20:57:14.692Z,28.70
2018-05-10T20:59:42.288Z,43.30
2018-05-10T21:02:09.896Z,33.57
2018-05-10T21:04:37.477Z,29.80
2018-05-10T21:07:05.057Z,34.37
2018-05-10T21:09:32.630Z,27.33
2018-05-10T21:12:00.245Z,31.00
2018-05-10T21:14:27.852Z,28.80
2018-05-10T21:16:55.417Z,26.47
2018-05-10T21:19:23.091Z,29.60
2018-05-10T21:21:50.695Z,31.23
2018-05-10T21:24:18.422Z,26.60
2018-05-10T21:26:46.032Z,28.20
2018-05-10T21:29:13.640Z,33.73
2018-05-10T21:31:41.217Z,29.40
2018-05-10T21:34:09.630Z,35.60
2018-05-10T21:36:38.010Z,27.73
2018-05-10T21:39:05.636Z,25.20
2018-05-10T21:41:33.963Z,31.87
2018-05-10T21:44:01.569Z,24.20
2018-05-10T21:46:29.138Z,22.93
2018-05-10T21:48:57.510Z,46.10
2018-05-10T21:51:25.106Z,30.23
2018-05-10T21:53:52.702Z,24.87
2018-05-10T21:56:20.375Z,28.10
2018-05-10T21:58:47.975Z,27.53
2018-05-10T22:01:15.556Z,27.30
2018-05-10T22:03:43.145Z,27.53
2018-05-10T22:06:10.793Z,25.20
2018-05-10T22:08:38.372Z,46.83
2018-05-10T22:11:05.953Z,42.73
2018-05-10T22:13:33.927Z,35.93
2018-05-10T22:16:01.585Z,30.27
2018-05-10T22:18:29.137Z,30.40
2018-05-10T22:20:56.738Z,53.77
2018-05-10T22:23:25.070Z,24.23
2018-05-10T22:25:52.677Z,30.93
2018-05-10T22:28:21.039Z,35.57
2018-05-10T22:30:48.624Z,32.70
2018-05-10T22:33:16.221Z,26.40
2018-05-10T22:35:43.797Z,37.77
2018-05-10T22:38:11.363Z,48.53
2018-05-10T22:40:38.940Z,32.77
2018-05-10T22:43:06.610Z,43.10
2018-05-10T22:45:34.254Z,30.30
2018-05-10T22:48:01.891Z,29.77
2018-05-10T22:50:29.457Z,30.13
2018-05-10T22:52:57.012Z,43.90
2018-05-10T22:55:24.587Z,31.43
2018-05-10T22:57:52.180Z,33.80
2018-05-10T23:00:20.507Z,36.00
2018-05-10T23:02:48.122Z,56.30
2018-05-10T23:05:16.434Z,36.40
2018-05-10T23:07:44.043Z,34.03
2018-05-10T23:10:11.597Z,53.70
2018-05-10T23:12:39.188Z,35.30
2018-05-10T23:15:07.535Z,42.80
2018-05-10T23:17:35.208Z,34.00
2018-05-10T23:20:02.803Z,28.37
2018-05-10T23:22:31.165Z,35.90
2018-05-10T23:24:59.515Z,30.90
2018-05-10T23:27:27.083Z,29.93
2018-05-10T23:29:54.651Z,28.90
2018-05-10T23:32:22.224Z,27.50
2018-05-10T23:34:50.572Z,49.43
2018-05-10T23:37:18.147Z,28.80
2018-05-10T23:39:45.730Z,43.33
2018-05-10T23:42:14.128Z,28.27
2018-05-10T23:44:41.724Z,31.17
2018-05-10T23:47:09.295Z,44.43
2018-05-10T23:49:36.890Z,29.97
2018-05-10T23:52:04.448Z,29.60
2018-05-10T23:54:32.805Z,30.33
2018-05-10T23:57:00.353Z,30.70
2018-05-10T23:59:27.998Z,28.30
